createdAt,value
2023-05-19T00:00:15.148Z,55.20
2023-05-19T00:03:03.840Z,55.30
2023-05-19T00:05:32.336Z,55.30
2023-05-19T00:08:03.240Z,55.30
2023-05-19T00:10:31.921Z,55.40
2023-05-19T00:13:00.324Z,55.30
2023-05-19T00:15:28.513Z,55.40
2023-05-19T00:17:56.959Z,55.70
2023-05-19T00:20:25.209Z,56.00
2023-05-19T00:22:53.096Z,56.40
2023-05-19T00:25:21.174Z,56.70
2023-05-19T00:27:48.987Z,56.80
2023-05-19T00:30:17.756Z,56.90
2023-05-19T00:32:45.704Z,56.90
2023-05-19T00:35:14.265Z,57.00
2023-05-19T00:37:42.050Z,57.00
2023-05-19T00:40:11.235Z,57.00
2023-05-19T00:42:39.742Z,57.00
2023-05-19T00:45:08.859Z,57.10
2023-05-19T00:47:36.701Z,57.10
2023-05-19T00:50:05.307Z,57.20
2023-05-19T00:52:33.307Z,57.30
2023-05-19T00:55:01.699Z,57.40
2023-05-19T00:57:29.669Z,57.40
2023-05-19T00:59:59.241Z,57.40
2023-05-19T01:02:30.373Z,57.50
2023-05-19T01:04:59.443Z,57.60
2023-05-19T01:07:28.813Z,57.70
2023-05-19T01:09:57.778Z,58.00
2023-05-19T01:12:27.050Z,58.00
2023-05-19T01:14:56.566Z,58.00
2023-05-19T01:17:34.724Z,58.10
2023-05-19T01:20:17.559Z,58.00
2023-05-19T01:23:00.092Z,58.00
2023-05-19T01:25:59.510Z,58.10
2023-05-19T01:28:55.027Z,58.10
2023-05-19T01:31:25.507Z,58.20
2023-05-19T01:33:54.717Z,58.30
2023-05-19T01:36:26.435Z,58.40
2023-05-19T01:38:57.800Z,58.70
2023-05-19T01:41:28.743Z,58.90
2023-05-19T01:43:57.672Z,59.00
2023-05-19T01:46:26.702Z,59.00
2023-05-19T01:48:56.702Z,59.10
2023-05-19T01:51:24.837Z,59.20
2023-05-19T01:53:52.858Z,59.30
2023-05-19T01:56:34.444Z,59.40
2023-05-19T01:59:38.774Z,59.50
2023-05-19T02:02:18.607Z,59.60
2023-05-19T02:04:56.515Z,59.50
2023-05-19T02:07:44.825Z,59.60
2023-05-19T02:10:24.836Z,59.70
2023-05-19T02:12:54.573Z,59.70
2023-05-19T02:15:27.161Z,59.70
2023-05-19T02:17:58.460Z,59.80
2023-05-19T02:20:26.614Z,60.00
2023-05-19T02:22:54.776Z,60.20
2023-05-19T02:25:23.774Z,60.50
2023-05-19T02:27:52.818Z,60.60
2023-05-19T02:30:20.735Z,60.70
2023-05-19T02:32:49.258Z,60.70
2023-05-19T02:35:17.073Z,60.70
2023-05-19T02:37:46.504Z,60.80
2023-05-19T02:40:15.683Z,60.80
2023-05-19T02:42:43.823Z,60.90
2023-05-19T02:45:12.425Z,60.80
2023-05-19T02:47:42.391Z,60.70
2023-05-19T02:50:10.220Z,60.70
2023-05-19T02:52:38.672Z,60.90
2023-05-19T02:55:06.799Z,60.90
2023-05-19T02:57:35.974Z,61.20
2023-05-19T03:00:04.151Z,61.10
2023-05-19T03:02:34.530Z,61.20
2023-05-19T03:05:04.132Z,61.10
2023-05-19T03:07:34.140Z,61.20
2023-05-19T03:10:04.402Z,61.30
2023-05-19T03:12:34.840Z,61.30
2023-05-19T03:15:03.903Z,61.40
2023-05-19T03:17:34.582Z,61.50
2023-05-19T03:20:02.687Z,61.50
2023-05-19T03:22:31.246Z,61.60
2023-05-19T03:24:59.401Z,61.70
2023-05-19T03:27:28.027Z,61.70
2023-05-19T03:29:55.895Z,61.80
2023-05-19T03:32:25.089Z,61.70
2023-05-19T03:34:53.957Z,61.80
2023-05-19T03:37:22.283Z,62.00
2023-05-19T03:39:50.138Z,61.90
2023-05-19T03:42:18.336Z,61.90
2023-05-19T03:44:46.484Z,61.90
2023-05-19T03:47:14.964Z,61.90
2023-05-19T03:50:03.791Z,61.90
2023-05-19T03:52:48.438Z,62.00
2023-05-19T03:55:30.299Z,62.00
2023-05-19T03:57:58.551Z,62.10
2023-05-19T04:00:26.767Z,62.10
2023-05-19T04:02:55.136Z,62.20
2023-05-19T04:05:23.064Z,62.20
2023-05-19T04:07:51.583Z,62.20
2023-05-19T04:10:20.483Z,62.30
2023-05-19T04:12:48.760Z,62.40
2023-05-19T04:15:17.103Z,62.50
2023-05-19T04:17:46.522Z,62.50
2023-05-19T04:20:14.424Z,62.40
2023-05-19T04:22:43.161Z,62.40
2023-05-19T04:25:11.154Z,62.40
2023-05-19T04:27:39.947Z,62.50
2023-05-19T04:30:08.772Z,62.60
2023-05-19T04:32:37.806Z,62.60
2023-05-19T04:35:06.786Z,62.70
2023-05-19T04:37:37.768Z,62.70
2023-05-19T04:40:11.376Z,62.80
2023-05-19T04:42:46.272Z,62.90
2023-05-19T04:45:15.203Z,63.00
2023-05-19T04:47:48.581Z,63.10
2023-05-19T04:50:17.265Z,63.20
2023-05-19T04:52:46.192Z,63.20
2023-05-19T04:55:15.579Z,63.10
2023-05-19T04:57:43.974Z,63.20
2023-05-19T05:00:14.785Z,63.30
2023-05-19T05:02:58.119Z,63.30
2023-05-19T05:05:28.527Z,63.40
2023-05-19T05:07:58.875Z,63.50
2023-05-19T05:10:29.416Z,63.80
2023-05-19T05:12:57.680Z,63.70
2023-05-19T05:15:28.922Z,63.80
2023-05-19T05:17:59.682Z,63.90
2023-05-19T05:20:28.152Z,63.90
2023-05-19T05:22:58.062Z,64.00
2023-05-19T05:25:28.851Z,64.00
2023-05-19T05:27:59.425Z,64.10
2023-05-19T05:30:27.398Z,64.30
2023-05-19T05:32:57.340Z,64.30
2023-05-19T05:35:32.610Z,64.50
2023-05-19T05:38:02.129Z,64.50
2023-05-19T05:40:30.344Z,64.60
2023-05-19T05:43:02.031Z,64.60
2023-05-19T05:45:33.325Z,64.70
2023-05-19T05:48:03.286Z,64.80
2023-05-19T05:50:32.549Z,64.90
2023-05-19T05:53:03.176Z,64.90
2023-05-19T05:55:31.791Z,64.80
2023-05-19T05:58:02.609Z,64.70
2023-05-19T06:00:30.556Z,64.70
2023-05-19T06:02:59.853Z,64.40
2023-05-19T06:05:27.947Z,64.30
2023-05-19T06:07:57.881Z,64.10
2023-05-19T06:10:29.231Z,63.70
2023-05-19T06:12:57.593Z,63.10
2023-05-19T06:15:26.660Z,62.80
2023-05-19T06:18:08.720Z,62.90
2023-05-19T06:20:36.558Z,63.10
2023-05-19T06:23:04.862Z,63.20
2023-05-19T06:25:33.000Z,63.30
2023-05-19T06:28:02.326Z,63.50
2023-05-19T06:30:32.973Z,63.70
2023-05-19T06:33:18.322Z,63.60
2023-05-19T06:35:46.254Z,63.10
2023-05-19T06:38:18.855Z,63.00
2023-05-19T06:40:47.737Z,63.20
2023-05-19T06:43:16.234Z,63.00
2023-05-19T06:45:55.495Z,62.90
2023-05-19T06:48:26.407Z,62.80
2023-05-19T06:50:55.330Z,62.70
2023-05-19T06:53:23.698Z,62.70
2023-05-19T06:55:59.228Z,62.80
2023-05-19T06:58:32.506Z,62.90
2023-05-19T07:01:02.422Z,62.80
2023-05-19T07:03:36.775Z,62.70
2023-05-19T07:06:07.111Z,62.60
2023-05-19T07:08:37.523Z,62.50
2023-05-19T07:11:07.443Z,62.30
2023-05-19T07:13:36.165Z,61.80
2023-05-19T07:16:05.367Z,61.50
2023-05-19T07:18:35.645Z,61.50
2023-05-19T07:21:03.851Z,61.70
2023-05-19T07:23:33.077Z,61.90
2023-05-19T07:26:00.956Z,62.00
2023-05-19T07:28:29.332Z,62.20
2023-05-19T07:30:57.322Z,62.20
2023-05-19T07:33:27.419Z,62.30
2023-05-19T07:35:55.203Z,62.30
2023-05-19T07:38:23.775Z,62.10
2023-05-19T07:40:51.854Z,62.00
2023-05-19T07:43:20.330Z,61.90
2023-05-19T07:45:48.401Z,62.00
2023-05-19T07:48:19.051Z,62.00
2023-05-19T07:50:47.037Z,62.00
2023-05-19T07:53:16.023Z,61.90
2023-05-19T07:55:43.880Z,61.80
2023-05-19T07:58:12.374Z,61.80
2023-05-19T08:00:41.491Z,61.60
2023-05-19T08:03:10.854Z,61.80
2023-05-19T08:05:39.503Z,61.80
2023-05-19T08:08:08.095Z,61.80
2023-05-19T08:10:36.280Z,61.70
2023-05-19T08:13:05.915Z,61.80
2023-05-19T08:15:35.404Z,61.80
2023-05-19T08:18:04.129Z,61.70
2023-05-19T08:20:32.839Z,61.60
2023-05-19T08:23:01.465Z,61.40
2023-05-19T08:25:29.956Z,61.30
2023-05-19T08:27:58.265Z,61.50
2023-05-19T08:30:26.703Z,61.40
2023-05-19T08:32:55.205Z,61.10
2023-05-19T08:35:23.255Z,60.90
2023-05-19T08:37:51.849Z,60.50
2023-05-19T08:40:20.372Z,60.30
2023-05-19T08:42:50.041Z,60.50
2023-05-19T08:45:17.814Z,60.20
2023-05-19T08:47:50.077Z,60.20
2023-05-19T08:50:23.280Z,60.00
2023-05-19T08:53:18.126Z,60.10
2023-05-19T08:56:04.431Z,60.10
2023-05-19T08:58:34.164Z,59.80
2023-05-19T09:01:05.108Z,59.70
2023-05-19T09:03:39.714Z,60.00
2023-05-19T09:06:14.549Z,60.10
2023-05-19T09:08:43.641Z,60.20
2023-05-19T09:11:12.269Z,60.10
2023-05-19T09:13:41.097Z,60.30
2023-05-19T09:16:15.792Z,60.40
2023-05-19T09:19:04.927Z,60.60
2023-05-19T09:21:34.489Z,60.70
2023-05-19T09:24:06.707Z,60.60
2023-05-19T09:26:39.627Z,60.50
2023-05-19T09:29:15.772Z,60.30
2023-05-19T09:31:56.515Z,60.30
2023-05-19T09:34:25.336Z,60.40
2023-05-19T09:36:54.355Z,60.30
2023-05-19T09:39:25.509Z,60.20
2023-05-19T09:41:55.647Z,60.00
2023-05-19T09:44:25.094Z,60.10
2023-05-19T09:46:53.818Z,60.00
2023-05-19T09:49:27.648Z,59.70
2023-05-19T09:51:56.962Z,59.70
2023-05-19T09:54:28.822Z,60.10
2023-05-19T09:57:04.378Z,60.00
2023-05-19T09:59:34.142Z,60.00
2023-05-19T10:02:03.141Z,60.20
2023-05-19T10:04:32.093Z,60.50
2023-05-19T10:07:01.777Z,60.50
2023-05-19T10:09:30.446Z,60.70
2023-05-19T10:11:59.832Z,60.90
2023-05-19T10:14:29.864Z,61.00
2023-05-19T10:16:59.902Z,61.10
2023-05-19T10:19:29.637Z,61.10
2023-05-19T10:21:58.081Z,61.30
2023-05-19T10:24:27.451Z,61.40
2023-05-19T10:27:08.818Z,61.60
2023-05-19T10:29:40.468Z,61.60
2023-05-19T10:32:12.635Z,61.80
2023-05-19T10:35:02.460Z,61.80
2023-05-19T10:37:30.566Z,61.90
2023-05-19T10:39:59.437Z,62.00
2023-05-19T10:42:54.293Z,62.00
2023-05-19T10:45:27.425Z,62.10
2023-05-19T10:47:55.463Z,62.20
2023-05-19T10:50:24.108Z,62.20
2023-05-19T10:52:57.352Z,62.30
2023-05-19T10:55:52.726Z,62.20
2023-05-19T10:58:44.129Z,62.00
2023-05-19T11:01:24.977Z,61.60
2023-05-19T11:03:55.277Z,61.40
2023-05-19T11:06:28.023Z,61.20
2023-05-19T11:08:57.721Z,61.10
2023-05-19T11:11:27.871Z,61.30
2023-05-19T11:13:57.161Z,61.40
2023-05-19T11:16:30.245Z,61.30
2023-05-19T11:19:01.032Z,61.40
2023-05-19T11:21:55.492Z,61.20
2023-05-19T11:24:50.922Z,61.10
2023-05-19T11:27:25.059Z,61.10
2023-05-19T11:29:53.251Z,61.50
2023-05-19T11:32:23.463Z,61.50
2023-05-19T11:34:51.961Z,61.70
2023-05-19T11:37:20.534Z,61.90
2023-05-19T11:39:48.680Z,62.10
2023-05-19T11:42:17.499Z,62.10
2023-05-19T11:44:49.554Z,62.20
2023-05-19T11:47:18.292Z,62.20
2023-05-19T11:49:48.844Z,62.20
2023-05-19T11:52:17.545Z,62.20
2023-05-19T11:54:49.297Z,62.20
2023-05-19T11:57:17.845Z,62.10
2023-05-19T11:59:48.337Z,61.90
2023-05-19T12:02:22.273Z,62.00
2023-05-19T12:04:50.174Z,62.00
2023-05-19T12:07:23.799Z,62.00
2023-05-19T12:09:52.878Z,62.10
2023-05-19T12:12:22.987Z,62.10
2023-05-19T12:14:53.677Z,62.20
2023-05-19T12:17:24.457Z,62.20
2023-05-19T12:19:52.737Z,62.20
2023-05-19T12:22:21.272Z,62.10
2023-05-19T12:24:51.166Z,62.00
2023-05-19T12:27:21.611Z,62.00
2023-05-19T12:29:54.453Z,61.90
2023-05-19T12:32:29.256Z,61.80
2023-05-19T12:35:01.016Z,61.90
2023-05-19T12:37:33.592Z,61.80
2023-05-19T12:40:02.452Z,61.70
2023-05-19T12:42:31.917Z,61.60
2023-05-19T12:45:03.398Z,61.50
2023-05-19T12:47:35.789Z,61.50
2023-05-19T12:50:06.621Z,61.50
2023-05-19T12:52:50.162Z,61.50
2023-05-19T12:55:20.994Z,61.50
2023-05-19T12:57:53.217Z,61.50
2023-05-19T13:00:24.210Z,61.40
2023-05-19T13:03:00.544Z,61.50
2023-05-19T13:05:30.619Z,61.50
2023-05-19T13:08:02.641Z,61.50
2023-05-19T13:10:31.806Z,61.40
2023-05-19T13:13:01.109Z,61.30
2023-05-19T13:15:36.774Z,61.10
2023-05-19T13:18:07.631Z,61.00
2023-05-19T13:20:36.918Z,60.80
2023-05-19T13:23:07.939Z,60.70
2023-05-19T13:25:36.862Z,60.70
2023-05-19T13:28:06.226Z,60.50
2023-05-19T13:30:36.477Z,59.70
2023-05-19T13:33:05.672Z,59.70
2023-05-19T13:35:42.728Z,60.00
2023-05-19T13:38:12.260Z,60.10
2023-05-19T13:40:41.249Z,60.20
2023-05-19T13:43:10.184Z,60.40
2023-05-19T13:45:38.376Z,60.70
2023-05-19T13:48:07.812Z,60.80
2023-05-19T13:50:35.990Z,60.80
2023-05-19T13:53:04.469Z,60.50
2023-05-19T13:55:32.828Z,60.20
2023-05-19T13:58:01.575Z,60.10
2023-05-19T14:00:31.145Z,59.80
2023-05-19T14:03:01.329Z,59.80
2023-05-19T14:05:31.656Z,60.00
2023-05-19T14:08:01.458Z,60.00
2023-05-19T14:10:31.016Z,60.00
2023-05-19T14:15:34.834Z,60.00
2023-05-19T14:18:04.720Z,59.70
2023-05-19T14:20:33.647Z,59.50
2023-05-19T14:23:02.143Z,59.60
2023-05-19T14:25:30.121Z,59.40
2023-05-19T14:27:58.686Z,59.70
2023-05-19T14:30:27.016Z,59.90
2023-05-19T14:32:55.841Z,60.10
2023-05-19T14:35:24.398Z,60.20
2023-05-19T14:37:52.848Z,60.40
2023-05-19T14:40:20.971Z,60.40
2023-05-19T14:42:49.662Z,60.40
2023-05-19T14:45:18.981Z,60.50
2023-05-19T14:47:48.067Z,60.60
2023-05-19T14:50:16.067Z,60.60
2023-05-19T14:52:44.521Z,60.70
2023-05-19T14:55:13.234Z,60.60
2023-05-19T14:57:41.550Z,60.60
2023-05-19T15:00:12.338Z,60.50
2023-05-19T15:02:40.794Z,60.40
2023-05-19T15:05:10.155Z,60.30
2023-05-19T15:07:38.594Z,60.30
2023-05-19T15:10:06.949Z,60.50
2023-05-19T15:12:35.410Z,60.70
2023-05-19T15:15:03.454Z,60.80
2023-05-19T15:17:32.411Z,60.80
2023-05-19T15:20:00.920Z,60.70
2023-05-19T15:22:29.881Z,60.80
2023-05-19T15:24:57.731Z,60.90
2023-05-19T15:27:25.930Z,61.00
2023-05-19T15:29:53.713Z,61.10
2023-05-19T15:32:21.900Z,61.20
2023-05-19T15:34:49.752Z,61.40
2023-05-19T15:37:18.196Z,61.40
2023-05-19T15:39:46.397Z,61.50
2023-05-19T15:42:15.809Z,61.60
2023-05-19T15:44:46.276Z,61.70
2023-05-19T15:47:15.076Z,61.60
2023-05-19T15:49:42.882Z,61.60
2023-05-19T15:52:11.202Z,61.50
2023-05-19T15:54:39.008Z,61.50
2023-05-19T15:57:08.246Z,61.50
2023-05-19T15:59:36.154Z,61.50
2023-05-19T16:02:05.222Z,61.50
2023-05-19T16:04:33.726Z,61.50
2023-05-19T16:07:02.138Z,61.50
2023-05-19T16:09:29.928Z,61.60
2023-05-19T16:11:58.271Z,61.70
2023-05-19T16:14:29.437Z,61.70
2023-05-19T16:16:59.921Z,61.80
2023-05-19T16:19:30.739Z,61.90
2023-05-19T16:21:59.114Z,61.90
2023-05-19T16:24:27.832Z,61.90
2023-05-19T16:26:56.480Z,62.20
2023-05-19T16:29:24.909Z,62.20
2023-05-19T16:31:53.805Z,62.20
2023-05-19T16:34:22.004Z,62.20
2023-05-19T16:36:50.462Z,62.20
2023-05-19T16:39:18.689Z,62.50
2023-05-19T16:41:47.212Z,62.60
2023-05-19T16:44:15.033Z,62.70
2023-05-19T16:46:43.225Z,62.80
2023-05-19T16:49:11.558Z,62.80
2023-05-19T16:51:40.268Z,63.00
2023-05-19T16:54:08.590Z,63.10
2023-05-19T16:56:37.078Z,63.20
2023-05-19T16:59:05.352Z,63.20
2023-05-19T17:01:34.411Z,63.20
2023-05-19T17:04:03.447Z,63.20
2023-05-19T17:06:33.426Z,63.50
2023-05-19T17:09:02.034Z,63.40
2023-05-19T17:11:30.817Z,63.40
2023-05-19T17:13:59.286Z,63.50
2023-05-19T17:16:27.949Z,63.60
2023-05-19T17:18:57.388Z,63.60
2023-05-19T17:21:26.697Z,63.70
2023-05-19T17:23:54.994Z,63.80
2023-05-19T17:26:23.418Z,63.70
2023-05-19T17:28:51.450Z,63.80
2023-05-19T17:31:19.868Z,63.80
2023-05-19T17:33:54.530Z,63.90
2023-05-19T17:36:23.301Z,63.90
2023-05-19T17:38:51.335Z,63.90
2023-05-19T17:41:19.523Z,63.90
2023-05-19T17:43:47.487Z,63.80
2023-05-19T17:46:15.643Z,63.80
2023-05-19T17:48:44.122Z,63.90
2023-05-19T17:51:15.712Z,63.90
2023-05-19T17:53:43.913Z,64.00
2023-05-19T17:56:12.882Z,64.00
2023-05-19T17:58:41.687Z,64.10
2023-05-19T18:01:10.127Z,64.20
2023-05-19T18:03:38.170Z,64.20
2023-05-19T18:06:10.076Z,64.20
2023-05-19T18:08:38.904Z,64.20
2023-05-19T18:11:07.482Z,64.30
2023-05-19T18:13:37.404Z,64.40
2023-05-19T18:16:06.773Z,64.40
2023-05-19T18:18:37.551Z,64.60
2023-05-19T18:21:05.738Z,64.70
2023-05-19T18:23:34.186Z,64.70
2023-05-19T18:26:02.251Z,64.80
2023-05-19T18:28:29.973Z,64.80
2023-05-19T18:31:06.137Z,64.80
2023-05-19T18:33:36.514Z,65.00
2023-05-19T18:36:04.913Z,65.00
2023-05-19T18:38:32.643Z,65.10
2023-05-19T18:41:01.085Z,65.10
2023-05-19T18:43:30.378Z,65.20
2023-05-19T18:46:00.061Z,65.20
2023-05-19T18:48:28.306Z,65.30
2023-05-19T18:50:58.140Z,65.40
2023-05-19T18:53:26.331Z,65.40
2023-05-19T18:55:54.365Z,65.40
2023-05-19T18:58:22.271Z,65.40
2023-05-19T19:00:50.744Z,65.50
2023-05-19T19:03:18.652Z,65.60
2023-05-19T19:05:53.584Z,65.50
2023-05-19T19:08:21.629Z,65.60
2023-05-19T19:10:54.905Z,65.70
2023-05-19T19:13:22.928Z,65.60
2023-05-19T19:15:51.005Z,65.70
2023-05-19T19:18:18.772Z,65.80
2023-05-19T19:20:46.947Z,65.80
2023-05-19T19:23:14.585Z,65.80
2023-05-19T19:25:42.881Z,65.90
2023-05-19T19:28:10.877Z,65.90
2023-05-19T19:30:38.946Z,66.00
2023-05-19T19:33:07.043Z,66.10
2023-05-19T19:35:35.349Z,66.10
2023-05-19T19:38:03.015Z,66.10
2023-05-19T19:40:37.190Z,66.20
2023-05-19T19:43:05.171Z,66.20
2023-05-19T19:45:35.025Z,66.20
2023-05-19T19:48:02.829Z,66.30
2023-05-19T19:50:33.432Z,66.30
2023-05-19T19:53:01.679Z,66.40
2023-05-19T19:55:32.029Z,66.50
2023-05-19T19:57:59.870Z,66.50
2023-05-19T20:00:29.349Z,66.50
2023-05-19T20:03:04.996Z,66.50
2023-05-19T20:05:33.990Z,66.60
2023-05-19T20:08:01.655Z,66.50
2023-05-19T20:10:29.767Z,66.50
2023-05-19T20:12:59.392Z,66.50
2023-05-19T20:15:27.351Z,66.60
2023-05-19T20:17:55.073Z,66.60
2023-05-19T20:20:23.123Z,66.60
2023-05-19T20:22:50.897Z,66.60
2023-05-19T20:25:18.981Z,66.70
2023-05-19T20:27:46.682Z,66.90
2023-05-19T20:30:14.733Z,67.00
2023-05-19T20:32:42.508Z,67.10
2023-05-19T20:35:11.040Z,67.20
2023-05-19T20:37:39.129Z,67.20
2023-05-19T20:40:07.760Z,67.20
2023-05-19T20:42:35.519Z,67.60
2023-05-19T20:45:03.982Z,67.50
2023-05-19T20:47:31.984Z,67.50
2023-05-19T20:50:00.116Z,67.70
2023-05-19T20:52:27.949Z,67.80
2023-05-19T20:54:55.916Z,68.10
2023-05-19T20:57:23.887Z,68.20
2023-05-19T20:59:51.857Z,68.30
2023-05-19T21:02:19.564Z,68.40
2023-05-19T21:04:49.055Z,68.40
2023-05-19T21:07:16.975Z,68.40
2023-05-19T21:09:46.884Z,68.40
2023-05-19T21:12:16.476Z,68.40
2023-05-19T21:14:44.490Z,68.30
2023-05-19T21:17:12.421Z,68.30
2023-05-19T21:19:40.425Z,68.30
2023-05-19T21:22:08.081Z,68.30
2023-05-19T21:24:36.136Z,68.50
2023-05-19T21:27:04.026Z,68.50
2023-05-19T21:29:35.204Z,68.50
2023-05-19T21:32:03.303Z,68.60
2023-05-19T21:34:34.191Z,68.50
2023-05-19T21:37:01.989Z,68.60
2023-05-19T21:39:31.683Z,68.50
2023-05-19T21:41:59.926Z,68.50
2023-05-19T21:44:28.032Z,68.50
2023-05-19T21:46:55.860Z,68.60
2023-05-19T21:49:23.929Z,68.70
2023-05-19T21:51:51.925Z,68.60
2023-05-19T21:54:19.826Z,68.70
2023-05-19T21:56:47.492Z,68.90
2023-05-19T21:59:15.528Z,68.90
2023-05-19T22:01:43.229Z,69.00
2023-05-19T22:04:11.731Z,69.00
2023-05-19T22:06:39.462Z,69.00
2023-05-19T22:09:07.530Z,69.10
2023-05-19T22:11:35.249Z,69.10
2023-05-19T22:14:03.157Z,69.10
2023-05-19T22:16:31.382Z,69.10
2023-05-19T22:18:59.480Z,69.10
2023-05-19T22:21:27.171Z,69.10
2023-05-19T22:23:55.235Z,69.20
2023-05-19T22:26:23.126Z,69.20
2023-05-19T22:28:51.217Z,69.30
2023-05-19T22:31:19.639Z,69.20
2023-05-19T22:33:47.777Z,69.30
2023-05-19T22:36:16.493Z,69.20
2023-05-19T22:38:44.446Z,69.30
2023-05-19T22:41:12.125Z,69.30
2023-05-19T22:43:40.233Z,69.20
2023-05-19T22:46:08.032Z,69.30
2023-05-19T22:48:36.255Z,69.30
2023-05-19T22:51:04.052Z,69.50
2023-05-19T22:53:32.138Z,69.60
2023-05-19T22:55:59.708Z,69.60
2023-05-19T22:58:27.745Z,69.70
2023-05-19T23:00:55.339Z,69.80
2023-05-19T23:03:23.520Z,69.70
2023-05-19T23:05:51.185Z,69.80
2023-05-19T23:08:19.191Z,70.00
2023-05-19T23:10:46.941Z,69.90
2023-05-19T23:13:15.670Z,70.00
2023-05-19T23:15:43.415Z,69.90
2023-05-19T23:18:11.863Z,69.90
2023-05-19T23:20:39.833Z,70.00
2023-05-19T23:23:07.813Z,70.00
2023-05-19T23:25:35.683Z,70.20
2023-05-19T23:28:03.999Z,70.00
2023-05-19T23:30:33.181Z,70.00
2023-05-19T23:33:01.231Z,70.10
2023-05-19T23:35:28.956Z,70.20
2023-05-19T23:37:56.874Z,70.20
2023-05-19T23:40:24.638Z,70.40
2023-05-19T23:42:52.603Z,70.30
2023-05-19T23:45:20.419Z,70.30
2023-05-19T23:47:48.549Z,70.20
2023-05-19T23:50:16.165Z,70.30
2023-05-19T23:52:44.160Z,70.20
2023-05-19T23:55:13.262Z,70.40
2023-05-19T23:57:42.173Z,70.40
